Time;durP1;ratioP1;P1;durP2;ratioP2;P2;SDS_P1;SDS_P2;PMS_P1;PMS_P2;Temp;Humidity;BMP_temperature;BMP_pressure;BME280_temperature;BME280_humidity;BME280_pressure;Samples;Min_cycle;Max_cycle;Signal;HPM_P1;HPM_P2
2022/06/07 00:00:52;;;;;;;6.20;3.70;;;;;;;25.65;44.92;100916.04;106844;1283;61359;-81
2022/06/07 00:03:17;;;;;;;4.80;3.40;;;;;;;25.65;44.99;100915.14;106934;1283;61253;-81
2022/06/07 00:05:43;;;;;;;6.20;3.60;;;;;;;25.64;45.02;100911.75;106891;1283;61253;-83
2022/06/07 00:08:15;;;;;;;6.60;3.60;;;;;;;25.64;45.13;100911.76;107195;1283;61287;-81
2022/06/07 00:10:41;;;;;;;5.80;3.30;;;;;;;25.64;44.98;100909.21;107033;1283;61444;-82
2022/06/07 00:13:07;;;;;;;5.00;3.40;;;;;;;25.64;44.88;100907.44;106868;1283;61250;-81
2022/06/07 00:15:33;;;;;;;6.60;3.50;;;;;;;25.63;44.81;100899.39;106864;1284;61368;-82
2022/06/07 00:17:59;;;;;;;5.80;3.40;;;;;;;25.64;44.97;100900.81;107185;1283;59298;-81
2022/06/07 00:20:24;;;;;;;5.50;3.30;;;;;;;25.63;44.82;100903.70;106893;1283;61486;-81
2022/06/07 00:22:50;;;;;;;6.00;3.40;;;;;;;25.63;44.95;100902.64;106947;1283;61397;-81
2022/06/07 00:25:16;;;;;;;5.50;3.30;;;;;;;25.63;45.04;100903.02;106824;1283;61715;-81
2022/06/07 00:27:41;;;;;;;6.90;3.30;;;;;;;25.64;44.88;100899.93;106854;1283;61251;-81
2022/06/07 00:30:07;;;;;;;5.50;3.10;;;;;;;25.64;44.97;100897.39;106835;1283;61282;-81
2022/06/07 00:32:33;;;;;;;5.60;3.50;;;;;;;25.63;44.78;100896.17;106613;1285;61319;-81
2022/06/07 00:34:59;;;;;;;5.80;3.50;;;;;;;25.63;45.15;100892.41;106884;1283;61350;-80
2022/06/07 00:37:24;;;;;;;5.80;3.10;;;;;;;25.62;45.04;100891.17;106885;1283;61478;-81
2022/06/07 00:39:50;;;;;;;6.60;3.30;;;;;;;25.63;44.90;100890.81;106875;1283;61269;-81
2022/06/07 00:42:15;;;;;;;6.10;3.50;;;;;;;25.63;44.86;100887.20;107219;1283;61272;-81
2022/06/07 00:44:44;;;;;;;5.00;3.10;;;;;;;25.62;45.09;100886.31;107239;1283;61231;-81
2022/06/07 00:47:12;;;;;;;6.10;3.00;;;;;;;25.63;45.10;100883.41;106898;1283;61834;-81
2022/06/07 00:50:01;;;;;;;5.90;3.00;;;;;;;25.62;45.11;100881.82;106858;1283;72607;-84
2022/06/07 00:52:27;;;;;;;5.40;3.10;;;;;;;25.61;44.99;100877.41;107057;1283;75792;-81
2022/06/07 00:54:54;;;;;;;4.70;3.10;;;;;;;25.61;44.96;100877.23;106880;1283;61411;-80
2022/06/07 00:57:19;;;;;;;4.80;3.00;;;;;;;25.61;45.08;100874.88;106971;1283;61357;-82
2022/06/07 00:59:45;;;;;;;6.60;3.60;;;;;;;25.61;45.04;100877.02;106594;1285;61844;-83
2022/06/07 01:02:11;;;;;;;6.50;3.10;;;;;;;25.61;44.97;100875.21;106852;1283;61356;-82
2022/06/07 01:04:36;;;;;;;4.20;3.10;;;;;;;25.61;45.22;100876.14;106839;1283;61312;-81
2022/06/07 01:12:32;;;;;;;6.10;3.10;;;;;;;25.61;45.17;100880.13;106884;1283;74632;-82
2022/06/07 01:14:58;;;;;;;5.80;3.10;;;;;;;25.61;45.00;100878.35;106852;1283;61295;-80
2022/06/07 01:17:23;;;;;;;5.20;3.00;;;;;;;25.61;44.98;100877.43;106858;1283;61581;-81
2022/06/07 01:19:49;;;;;;;5.20;3.00;;;;;;;25.60;44.98;100881.45;106871;1283;61288;-81
2022/06/07 01:22:15;;;;;;;4.40;3.10;;;;;;;25.60;45.03;100878.74;106836;1283;61441;-82
2022/06/07 01:24:40;;;;;;;6.00;3.10;;;;;;;25.60;45.16;100874.98;107002;1283;61266;-81
2022/06/07 01:27:07;;;;;;;6.70;3.50;;;;;;;25.61;45.02;100870.60;106978;1283;61261;-81
2022/06/07 01:29:32;;;;;;;3.90;2.90;;;;;;;25.60;44.96;100870.66;106892;1283;61282;-80
2022/06/07 01:31:58;;;;;;;4.60;3.10;;;;;;;25.59;45.06;100870.68;107211;1283;72638;-82
2022/06/07 01:34:24;;;;;;;4.70;3.00;;;;;;;25.59;45.15;100873.39;106862;1283;61135;-85
2022/06/07 01:36:50;;;;;;;4.20;2.90;;;;;;;25.59;45.06;100869.30;106862;1283;61246;-78
2022/06/07 01:41:59;;;;;;;4.80;3.10;;;;;;;25.59;45.03;100864.79;107192;1283;71725;-80
2022/06/07 01:44:32;;;;;;;5.40;3.10;;;;;;;25.59;45.18;100861.92;106879;1283;61293;-81
2022/06/07 01:46:58;;;;;;;4.20;2.70;;;;;;;25.59;45.07;100864.65;106655;1284;61338;-81
2022/06/07 01:49:24;;;;;;;5.20;3.00;;;;;;;25.58;45.17;100863.95;107074;1283;61352;-81
2022/06/07 01:51:51;;;;;;;6.10;3.00;;;;;;;25.59;45.18;100861.58;106846;1284;61308;-79
2022/06/07 01:54:16;;;;;;;4.60;3.00;;;;;;;25.58;45.07;100861.64;106871;1283;61249;-81
2022/06/07 01:56:42;;;;;;;4.20;2.70;;;;;;;25.58;45.12;100863.77;106870;1283;61339;-81
2022/06/07 01:59:08;;;;;;;4.20;3.00;;;;;;;25.58;45.15;100860.52;106870;1283;60084;-81
2022/06/07 02:01:33;;;;;;;6.00;3.00;;;;;;;25.58;45.16;100861.95;106976;1284;61246;-80
2022/06/07 02:03:59;;;;;;;5.70;2.80;;;;;;;25.58;45.18;100858.55;106886;1283;61303;-81
2022/06/07 02:06:25;;;;;;;5.30;2.90;;;;;;;25.57;45.22;100855.38;106863;1283;74491;-81
2022/06/07 02:08:50;;;;;;;4.40;2.90;;;;;;;25.58;45.08;100853.02;106855;1284;61369;-81
2022/06/07 02:11:18;;;;;;;4.30;2.60;;;;;;;25.58;45.25;100848.65;106847;1283;61671;-81
2022/06/07 02:13:45;;;;;;;4.80;2.90;;;;;;;25.57;45.26;100846.90;107201;1283;61244;-82
2022/06/07 02:16:10;;;;;;;5.00;2.60;;;;;;;25.57;45.29;100847.63;106865;1284;61414;-80
2022/06/07 02:18:36;;;;;;;5.90;2.70;;;;;;;25.57;45.20;100848.00;106854;1283;61263;-81
2022/06/07 02:21:02;;;;;;;5.30;3.00;;;;;;;25.57;45.10;100850.70;106934;1284;61266;-81
2022/06/07 02:23:28;;;;;;;4.60;2.70;;;;;;;25.57;45.19;100852.52;106864;1283;61273;-81
2022/06/07 02:26:17;;;;;;;4.60;2.90;;;;;;;25.57;45.15;100848.58;106858;1283;61275;-84
2022/06/07 02:28:43;;;;;;;;;;;;;;;25.57;45.09;100846.94;107237;1283;61487;-81
2022/06/07 02:31:09;;;;;;;4.30;2.80;;;;;;;25.55;45.28;100848.05;107212;1283;61641;-81
2022/06/07 02:33:35;;;;;;;6.50;3.10;;;;;;;25.55;45.11;100847.47;106604;1284;61137;-84
2022/06/07 02:36:00;;;;;;;3.90;2.60;;;;;;;25.55;45.28;100849.82;106838;1284;61258;-80
2022/06/07 02:38:26;;;;;;;5.10;2.90;;;;;;;25.55;45.21;100850.90;107236;1282;61233;-81
2022/06/07 02:40:51;;;;;;;4.40;3.00;;;;;;;25.55;45.22;100852.70;106876;1283;61718;-82
2022/06/07 02:43:17;;;;;;;4.60;2.70;;;;;;;25.55;45.12;100856.65;106891;1283;61432;-83
2022/06/07 02:45:43;;;;;;;3.90;2.80;;;;;;;25.55;45.32;100855.58;106850;1283;61321;-82
2022/06/07 02:48:09;;;;;;;4.20;2.90;;;;;;;25.56;45.20;100856.98;106879;1283;61243;-82
2022/06/07 02:50:35;;;;;;;3.60;2.60;;;;;;;25.55;45.32;100859.16;107237;1283;62454;-83
2022/06/07 02:53:01;;;;;;;3.90;2.70;;;;;;;25.56;45.35;100860.21;106851;1284;61297;-81
2022/06/07 02:55:26;;;;;;;4.40;2.90;;;;;;;25.56;45.08;100859.49;106855;1283;61245;-81
2022/06/07 02:57:52;;;;;;;4.90;2.80;;;;;;;25.56;45.34;100860.19;106857;1283;61362;-80
2022/06/07 03:00:18;;;;;;;4.00;2.70;;;;;;;25.56;45.15;100861.13;106903;1283;61282;-81
2022/06/07 03:02:43;;;;;;;5.40;2.80;;;;;;;25.56;45.23;100863.99;107208;1283;61125;-81
2022/06/07 03:05:12;;;;;;;3.80;2.80;;;;;;;25.56;45.21;100865.96;107091;1283;61424;-81
2022/06/07 03:07:38;;;;;;;4.70;2.70;;;;;;;25.56;45.35;100865.22;106619;1284;73874;-80
2022/06/07 03:10:04;;;;;;;4.40;3.00;;;;;;;25.56;45.42;100867.41;107044;1283;61198;-81
2022/06/07 03:12:30;;;;;;;4.80;2.90;;;;;;;25.56;45.37;100865.95;107069;1283;62872;-81
2022/06/07 03:14:57;;;;;;;5.30;2.70;;;;;;;25.56;45.19;100867.95;106841;1283;61279;-80
2022/06/07 03:17:24;;;;;;;4.00;2.50;;;;;;;25.56;45.36;100867.17;107210;1282;61131;-81
2022/06/07 03:19:50;;;;;;;5.00;2.70;;;;;;;25.56;45.37;100869.17;106839;1283;61225;-80
2022/06/07 03:22:17;;;;;;;4.00;2.70;;;;;;;25.56;45.26;100870.64;106881;1284;61103;-81
2022/06/07 03:24:43;;;;;;;5.30;2.90;;;;;;;25.56;45.39;100870.60;106835;1283;61385;-82
2022/06/07 03:27:08;;;;;;;4.80;2.50;;;;;;;25.57;45.40;100871.65;107212;1283;62493;-82
2022/06/07 03:29:34;;;;;;;3.70;2.50;;;;;;;25.57;45.37;100869.27;106850;1284;61278;-82
2022/06/07 03:32:00;;;;;;;5.20;2.80;;;;;;;25.58;45.27;100871.57;106873;1283;61270;-81
2022/06/07 03:34:26;;;;;;;5.00;2.80;;;;;;;25.58;45.30;100868.64;106747;1283;61374;-80
2022/06/07 03:36:51;;;;;;;4.40;2.90;;;;;;;25.58;45.33;100871.52;106832;1283;61217;-80
2022/06/07 03:39:17;;;;;;;4.30;2.70;;;;;;;25.58;45.27;100866.30;106591;1286;73179;-83
2022/06/07 03:41:43;;;;;;;3.00;2.30;;;;;;;25.59;45.38;100867.33;106842;1283;61375;-80
2022/06/07 03:44:08;;;;;;;4.80;2.50;;;;;;;25.59;45.12;100866.07;106633;1283;61312;-80
2022/06/07 03:46:34;;;;;;;4.50;2.30;;;;;;;25.58;45.34;100863.40;106712;1283;61247;-81
2022/06/07 03:49:00;;;;;;;6.70;2.70;;;;;;;25.59;45.41;100869.66;107154;1283;61278;-81
2022/06/07 03:51:28;;;;;;;5.20;2.80;;;;;;;25.59;45.28;100867.46;106575;1283;61296;-81
2022/06/07 03:53:54;;;;;;;9.90;3.40;;;;;;;25.59;45.37;100868.21;106998;1283;59287;-81
2022/06/07 03:56:21;;;;;;;11.80;4.20;;;;;;;25.59;45.23;100870.17;106806;1284;61238;-81
2022/06/07 03:58:47;;;;;;;12.50;5.20;;;;;;;25.58;45.29;100864.68;106753;1284;61292;-82
2022/06/07 04:01:15;;;;;;;22.50;6.60;;;;;;;25.58;45.00;100866.36;106792;1284;61323;-81
2022/06/07 04:03:43;;;;;;;16.80;5.70;;;;;;;25.56;44.91;100862.86;106713;1283;61428;-81
2022/06/07 04:06:21;;;;;;;19.70;5.60;;;;;;;25.56;44.81;100863.66;106623;1286;61429;-81
2022/06/07 04:08:47;;;;;;;16.80;5.40;;;;;;;25.54;44.65;100863.77;106634;1282;73671;-81
2022/06/07 04:11:13;;;;;;;16.00;5.20;;;;;;;25.53;44.66;100863.86;106581;1284;61221;-80
2022/06/07 04:13:38;;;;;;;18.80;5.30;;;;;;;25.53;44.51;100863.36;106192;1283;61503;-80
2022/06/07 04:16:08;;;;;;;12.30;4.50;;;;;;;25.53;44.48;100864.10;106004;1285;61423;-80
2022/06/07 04:18:34;;;;;;;12.70;4.80;;;;;;;25.52;44.29;100864.86;106227;1284;72723;-81
2022/06/07 04:20:59;;;;;;;8.10;3.40;;;;;;;25.52;44.10;100862.35;106394;1284;61310;-80
2022/06/07 04:23:25;;;;;;;12.20;3.70;;;;;;;25.52;44.00;100866.12;106422;1283;61340;-81
2022/06/07 04:25:51;;;;;;;8.80;3.60;;;;;;;25.52;44.07;100867.20;106596;1282;61267;-80
2022/06/07 04:28:17;;;;;;;13.90;3.90;;;;;;;25.53;43.87;100869.48;106487;1284;61425;-81
2022/06/07 04:30:47;;;;;;;10.40;3.50;;;;;;;25.53;43.88;100868.19;106203;1284;61410;-80
2022/06/07 04:33:15;;;;;;;10.40;3.90;;;;;;;25.54;43.62;100869.79;106283;1284;74246;-79
2022/06/07 04:35:44;;;;;;;9.40;3.50;;;;;;;25.54;43.64;100871.36;106421;1284;61285;-82
2022/06/07 04:38:11;;;;;;;6.30;3.50;;;;;;;25.54;43.50;100869.02;106842;1283;61571;-79
2022/06/07 04:40:41;;;;;;;9.20;3.80;;;;;;;25.54;43.23;100869.59;106370;1283;73200;-80
2022/06/07 04:43:09;;;;;;;6.20;3.70;;;;;;;25.52;43.14;100868.51;106243;1283;76184;-80
2022/06/07 04:45:37;;;;;;;6.90;3.40;;;;;;;25.50;43.05;100868.87;106530;1283;61164;-80
2022/06/07 04:48:07;;;;;;;8.10;3.60;;;;;;;25.47;42.74;100872.70;106597;1283;61300;-79
2022/06/07 04:50:33;;;;;;;4.70;3.20;;;;;;;25.43;42.57;100873.63;106267;1284;73632;-81
2022/06/07 04:52:59;;;;;;;10.90;3.50;;;;;;;25.40;42.45;100872.62;106111;1283;61418;-81
2022/06/07 04:55:25;;;;;;;9.40;3.80;;;;;;;25.37;42.33;100875.79;106157;1284;61423;-80
2022/06/07 04:57:50;;;;;;;9.70;3.50;;;;;;;25.32;42.30;100872.90;106259;1284;61387;-82
2022/06/07 05:00:18;;;;;;;8.70;3.30;;;;;;;25.31;42.11;100875.02;106344;1284;61305;-82
2022/06/07 05:02:47;;;;;;;9.40;3.50;;;;;;;25.30;42.11;100874.88;106971;1283;61343;-80
2022/06/07 05:05:13;;;;;;;11.80;3.10;;;;;;;25.31;41.99;100879.12;106257;1283;61131;-80
2022/06/07 05:07:39;;;;;;;8.10;3.50;;;;;;;25.28;42.04;100880.98;105984;1284;61206;-80
2022/06/07 05:10:07;;;;;;;10.50;3.50;;;;;;;25.28;42.01;100884.28;106056;1284;61260;-81
2022/06/07 05:12:32;;;;;;;7.40;3.50;;;;;;;25.27;41.75;100886.32;107202;1283;74802;-80
2022/06/07 05:14:59;;;;;;;8.60;3.40;;;;;;;25.29;41.91;100891.71;106224;1284;61715;-80
2022/06/07 05:17:24;;;;;;;6.20;3.20;;;;;;;25.33;41.96;100890.19;105959;1284;61297;-80
2022/06/07 05:19:50;;;;;;;9.80;3.60;;;;;;;25.36;41.99;100890.59;105844;1284;61215;-80
2022/06/07 05:22:16;;;;;;;10.50;3.60;;;;;;;25.39;41.77;100890.36;105896;1284;61377;-80
2022/06/07 05:24:41;;;;;;;7.80;3.20;;;;;;;25.40;41.90;100891.84;105732;1283;61404;-80
2022/06/07 05:27:07;;;;;;;12.70;3.40;;;;;;;25.42;41.55;100893.18;106238;1284;61270;-79
2022/06/07 05:29:49;;;;;;;9.80;3.30;;;;;;;25.40;41.52;100893.30;106390;1283;61175;-80
2022/06/07 05:32:15;;;;;;;6.30;3.30;;;;;;;25.40;41.32;100894.75;106180;1283;73864;-80
2022/06/07 05:34:41;;;;;;;8.60;3.20;;;;;;;25.37;41.24;100894.69;105963;1284;61274;-80
2022/06/07 05:37:07;;;;;;;6.40;2.90;;;;;;;25.31;41.07;100896.61;105936;1284;60020;-81
2022/06/07 05:39:32;;;;;;;8.40;3.10;;;;;;;25.32;40.93;100899.83;105936;1284;61352;-81
2022/06/07 05:42:00;;;;;;;15.90;3.70;;;;;;;25.32;40.92;100904.98;105921;1284;61444;-81
2022/06/07 05:44:27;;;;;;;8.70;3.30;;;;;;;25.26;40.73;100903.70;107491;1284;59577;-82
2022/06/07 05:46:53;;;;;;;14.90;3.50;;;;;;;25.22;40.78;100903.36;107558;1284;59486;-82
2022/06/07 05:49:18;;;;;;;11.10;3.20;;;;;;;25.23;40.91;100898.33;106600;1284;61356;-82
2022/06/07 05:51:44;;;;;;;8.10;3.10;;;;;;;25.25;40.85;100898.17;106444;1284;61238;-81
2022/06/07 05:54:10;;;;;;;14.80;3.70;;;;;;;25.26;40.82;100902.76;106014;1283;61371;-80
2022/06/07 05:56:36;;;;;;;17.20;3.50;;;;;;;25.28;40.90;100902.98;105970;1284;61278;-81
2022/06/07 05:59:01;;;;;;;21.40;3.70;;;;;;;25.30;40.80;100903.23;105934;1283;61306;-80
2022/06/07 06:01:27;;;;;;;9.10;3.00;;;;;;;25.30;40.83;100901.36;106031;1284;61728;-79
2022/06/07 06:03:55;;;;;;;15.80;3.20;;;;;;;25.27;40.52;100901.98;106420;1284;61273;-81
2022/06/07 06:06:21;;;;;;;9.80;3.00;;;;;;;25.27;40.50;100903.05;106021;1283;75553;-84
2022/06/07 06:11:31;;;;;;;12.60;3.40;;;;;;;25.32;40.78;100900.16;106054;1283;61253;-81
2022/06/07 06:13:57;;;;;;;14.90;3.20;;;;;;;25.37;40.82;100897.40;105409;1284;729991;-80
2022/06/07 06:16:23;;;;;;;10.10;2.90;;;;;;;25.41;40.64;100890.90;105827;1284;61254;-81
2022/06/07 06:18:50;;;;;;;10.00;3.00;;;;;;;25.43;40.56;100895.41;106092;1283;61346;-81
2022/06/07 06:21:16;;;;;;;10.20;2.80;;;;;;;25.42;40.29;100893.70;107663;1283;59571;-81
2022/06/07 06:23:42;;;;;;;10.50;2.80;;;;;;;25.42;40.15;100893.52;107276;1284;59670;-81
2022/06/07 06:26:08;;;;;;;14.60;3.10;;;;;;;25.39;39.90;100893.97;107379;1283;59113;-82
2022/06/07 06:28:35;;;;;;;17.90;3.00;;;;;;;25.39;39.85;100886.71;106164;1284;61416;-82
2022/06/07 06:31:02;;;;;;;14.70;3.00;;;;;;;25.39;39.68;100887.88;105873;1284;61165;-80
2022/06/07 06:33:28;;;;;;;14.50;3.10;;;;;;;25.39;39.73;100883.33;105906;1283;61392;-80
2022/06/07 06:35:54;;;;;;;13.40;2.90;;;;;;;25.38;39.39;100881.26;105949;1283;61326;-80
2022/06/07 06:38:20;;;;;;;15.30;3.00;;;;;;;25.38;39.64;100883.01;105911;1284;61238;-80
2022/06/07 06:40:46;;;;;;;10.00;2.80;;;;;;;25.42;39.90;100880.13;105906;1285;61349;-80
2022/06/07 06:43:13;;;;;;;11.80;3.10;;;;;;;25.46;39.96;100877.32;106097;1283;63722;-81
2022/06/07 06:45:39;;;;;;;21.00;3.10;;;;;;;25.48;40.03;100872.81;105997;1283;61196;-84
2022/06/07 06:48:06;;;;;;;9.00;2.50;;;;;;;25.51;40.17;100876.81;105993;1283;61341;-81
2022/06/07 06:50:32;;;;;;;6.30;2.30;;;;;;;25.56;40.23;100875.09;106075;1283;61744;-85
2022/06/07 06:52:58;;;;;;;11.50;2.70;;;;;;;25.59;40.31;100877.72;105835;1283;61288;-80
2022/06/07 06:55:24;;;;;;;8.00;2.80;;;;;;;25.60;39.80;100874.27;106033;1283;61702;-82
2022/06/07 06:57:49;;;;;;;8.80;2.80;;;;;;;25.58;39.77;100872.41;105712;1283;61307;-80
2022/06/07 07:00:15;;;;;;;17.00;3.20;;;;;;;25.55;39.66;100870.39;105614;1284;61306;-81
2022/06/07 07:02:41;;;;;;;20.50;3.20;;;;;;;25.55;39.69;100873.44;105772;1283;61351;-80
2022/06/07 07:05:07;;;;;;;14.60;3.00;;;;;;;25.55;39.65;100875.38;105995;1283;61396;-80
2022/06/07 07:07:33;;;;;;;9.90;2.90;;;;;;;25.55;39.57;100873.41;105692;1283;61170;-82
2022/06/07 07:09:58;;;;;;;11.80;2.90;;;;;;;25.55;39.93;100868.38;105882;1283;61323;-80
2022/06/07 07:12:24;;;;;;;10.20;2.60;;;;;;;25.56;39.52;100867.89;106002;1282;61387;-80
2022/06/07 07:14:50;;;;;;;13.10;3.00;;;;;;;25.55;39.71;100870.36;105911;1283;62405;-81
2022/06/07 07:17:15;;;;;;;12.20;2.80;;;;;;;25.55;39.58;100868.18;105967;1283;61272;-80
2022/06/07 07:19:41;;;;;;;8.30;2.70;;;;;;;25.55;39.46;100866.05;105798;1283;61333;-80
2022/06/07 07:22:06;;;;;;;7.20;2.70;;;;;;;25.54;39.23;100865.83;105840;1284;61332;-81
2022/06/07 07:24:32;;;;;;;17.00;3.30;;;;;;;25.53;39.17;100868.02;106107;1283;62815;-82
2022/06/07 07:26:58;;;;;;;8.00;2.80;;;;;;;25.56;39.51;100864.52;106225;1283;61135;-79
2022/06/07 07:29:24;;;;;;;8.60;3.10;;;;;;;25.57;39.44;100863.73;105916;1283;61246;-80
2022/06/07 07:31:50;;;;;;;6.20;3.10;;;;;;;25.56;39.30;100861.46;105872;1283;61277;-80
2022/06/07 07:34:16;;;;;;;15.20;3.40;;;;;;;25.51;39.15;100863.20;105965;1283;61237;-80
2022/06/07 07:36:49;;;;;;;16.40;3.20;;;;;;;25.47;39.12;100860.09;106030;1283;61346;-80
2022/06/07 07:39:15;;;;;;;16.50;3.30;;;;;;;25.51;39.41;100858.85;105680;1283;73967;-82
2022/06/07 07:41:41;;;;;;;7.00;2.80;;;;;;;25.55;39.70;100863.36;105772;1283;63281;-81
2022/06/07 07:44:07;;;;;;;6.10;2.70;;;;;;;25.56;39.17;100863.05;105682;1283;61642;-80
2022/06/07 07:46:34;;;;;;;8.70;2.70;;;;;;;25.53;39.05;100860.14;105781;1283;61257;-80
2022/06/07 07:49:00;;;;;;;5.80;2.60;;;;;;;25.53;39.13;100861.70;106063;1283;61292;-80
2022/06/07 07:51:28;;;;;;;10.80;2.60;;;;;;;25.55;39.03;100860.46;106218;1283;61686;-81
2022/06/07 07:53:55;;;;;;;14.10;2.80;;;;;;;25.55;38.86;100860.29;105816;1284;61100;-80
2022/06/07 07:56:20;;;;;;;9.40;2.40;;;;;;;25.53;38.62;100850.92;106172;1283;61141;-80
2022/06/07 07:58:46;;;;;;;7.20;2.60;;;;;;;25.51;38.63;100852.88;105972;1283;61394;-80
2022/06/07 08:01:17;;;;;;;10.30;2.70;;;;;;;25.47;38.44;100848.54;106079;1283;61279;-81
2022/06/07 08:03:42;;;;;;;5.90;2.70;;;;;;;25.48;38.58;100843.79;107545;1283;60469;-80
2022/06/07 08:06:10;;;;;;;6.20;2.80;;;;;;;25.51;38.74;100848.80;107034;1283;61256;-80
2022/06/07 08:08:36;;;;;;;8.50;2.70;;;;;;;25.54;38.94;100847.73;106314;1283;72988;-81
2022/06/07 08:11:03;;;;;;;6.90;2.60;;;;;;;25.56;38.68;100844.36;105886;1283;61145;-81
2022/06/07 08:13:28;;;;;;;9.40;3.20;;;;;;;25.54;38.47;100849.56;105611;1284;61410;-81
2022/06/07 08:15:54;;;;;;;6.70;2.80;;;;;;;25.53;38.45;100842.46;106216;1283;61332;-81
2022/06/07 08:18:19;;;;;;;16.60;2.90;;;;;;;25.53;38.47;100837.89;105857;1283;61266;-80
2022/06/07 08:20:46;;;;;;;7.40;2.50;;;;;;;25.55;38.81;100839.04;105837;1283;61396;-80
2022/06/07 08:23:13;;;;;;;6.00;2.50;;;;;;;25.56;38.46;100837.81;106016;1282;61420;-80
2022/06/07 08:25:38;;;;;;;6.70;2.60;;;;;;;25.58;38.70;100840.86;106176;1282;61215;-80
2022/06/07 08:28:05;;;;;;;7.30;2.70;;;;;;;25.57;38.31;100839.20;106245;1283;61243;-81
2022/06/07 08:30:32;;;;;;;4.10;2.40;;;;;;;25.57;38.29;100836.00;106358;1283;73565;-80
2022/06/07 08:32:58;;;;;;;7.00;2.50;;;;;;;25.58;38.46;100830.42;106276;1283;74981;-81
2022/06/07 08:38:09;;;;;;;5.50;2.50;;;;;;;25.53;37.94;100830.20;106145;1283;61196;-80
2022/06/07 08:40:43;;;;;;;9.60;2.40;;;;;;;25.53;37.97;100828.19;106024;1283;61589;-80
2022/06/07 08:43:15;;;;;;;7.20;2.50;;;;;;;25.53;37.79;100823.17;106029;1283;74662;-80
2022/06/07 08:45:41;;;;;;;4.50;2.50;;;;;;;25.55;37.76;100817.95;105972;1283;61292;-82
2022/06/07 08:48:11;;;;;;;7.80;2.50;;;;;;;25.56;37.88;100819.96;105766;1284;61314;-81
2022/06/07 08:50:50;;;;;;;6.20;2.10;;;;;;;25.60;38.06;100817.98;106048;1283;72951;-80
2022/06/07 08:53:19;;;;;;;3.80;1.70;;;;;;;25.61;37.64;100819.35;107610;1282;74675;-80
2022/06/07 08:55:48;;;;;;;3.40;1.80;;;;;;;25.60;37.26;100816.95;106884;1283;61186;-81
2022/06/07 08:58:19;;;;;;;6.50;2.50;;;;;;;25.60;37.07;100811.16;105970;1283;61172;-80
2022/06/07 09:00:49;;;;;;;5.50;2.10;;;;;;;25.62;36.77;100805.11;105692;1284;72796;-80
2022/06/07 09:03:40;;;;;;;4.40;1.90;;;;;;;25.59;36.85;100796.67;106164;1283;73924;-80
2022/06/07 09:06:17;;;;;;;3.70;1.90;;;;;;;25.58;36.48;100813.18;106188;1283;61732;-80
2022/06/07 09:08:45;;;;;;;5.40;1.90;;;;;;;25.54;36.38;100804.50;105971;1283;61556;-80
2022/06/07 09:14:04;;;;;;;6.40;2.00;;;;;;;25.56;36.43;100808.68;106147;1283;74706;-83
2022/06/07 09:16:37;;;;;;;4.20;2.10;;;;;;;25.52;36.00;100797.34;106501;1282;61143;-82
2022/06/07 09:19:09;;;;;;;3.90;2.00;;;;;;;25.52;35.89;100797.84;106144;1283;61349;-80
2022/06/07 09:21:42;;;;;;;4.00;2.10;;;;;;;25.53;35.83;100795.95;106264;1283;72653;-81
2022/06/07 09:24:11;;;;;;;3.40;2.00;;;;;;;25.54;35.86;100794.95;105931;1283;76192;-80
2022/06/07 09:26:38;;;;;;;3.90;2.20;;;;;;;25.56;35.82;100792.64;106156;1285;61767;-80
2022/06/07 09:29:21;;;;;;;3.60;2.00;;;;;;;25.56;35.74;100791.36;105997;1284;59577;-81
2022/06/07 09:31:48;;;;;;;3.90;2.00;;;;;;;25.56;35.69;100787.01;106278;1283;72622;-81
2022/06/07 09:34:34;;;;;;;2.60;2.00;;;;;;;25.55;35.40;100784.95;106220;1283;75041;-81
2022/06/07 09:37:05;;;;;;;2.80;1.80;;;;;;;25.53;35.06;100780.66;106183;1283;61299;-81
2022/06/07 09:39:36;;;;;;;2.70;1.80;;;;;;;25.50;35.02;100778.05;105935;1282;61277;-83
2022/06/07 09:42:11;;;;;;;5.90;2.00;;;;;;;25.52;34.91;100770.65;106195;1283;74248;-80
2022/06/07 09:44:38;;;;;;;7.50;2.00;;;;;;;25.53;34.79;100768.72;106720;1283;75607;-81
2022/06/07 09:47:07;;;;;;;4.10;2.00;;;;;;;25.53;34.49;100766.96;107796;1282;61330;-80
2022/06/07 09:49:44;;;;;;;6.00;2.20;;;;;;;25.54;34.73;100766.67;107765;1283;59021;-79
2022/06/07 09:52:20;;;;;;;2.90;1.80;;;;;;;25.57;35.06;100767.86;107794;1282;63783;-81
2022/06/07 09:54:47;;;;;;;4.90;1.90;;;;;;;25.61;35.18;100763.17;107705;1282;66817;-81
2022/06/07 09:57:35;;;;;;;5.40;2.00;;;;;;;25.64;35.21;100758.04;107664;1283;59452;-80
2022/06/07 10:00:21;;;;;;;14.90;2.50;;;;;;;25.67;35.22;100759.21;106576;1283;61761;-81
2022/06/07 10:02:49;;;;;;;16.50;2.40;;;;;;;25.71;35.35;100757.91;106562;1283;72606;-80
2022/06/07 10:05:19;;;;;;;6.60;2.10;;;;;;;25.74;35.43;100761.09;106110;1284;74854;-79
2022/06/07 10:07:51;;;;;;;8.00;2.20;;;;;;;25.75;35.31;100757.91;106411;1282;61415;-80
2022/06/07 10:10:43;;;;;;;13.40;2.50;;;;;;;25.77;35.43;100750.37;106363;1282;61207;-80
2022/06/07 10:13:46;;;;;;;8.10;2.20;;;;;;;25.79;35.58;100753.64;107699;1282;74030;-80
2022/06/07 10:16:17;;;;;;;13.20;2.40;;;;;;;25.79;35.62;100754.33;107405;1281;66969;-79
2022/06/07 10:18:58;;;;;;;6.00;2.20;;;;;;;25.80;35.75;100748.77;106526;1283;61330;-79
2022/06/07 10:21:44;;;;;;;6.40;2.40;;;;;;;25.82;35.66;100746.70;106504;1283;61385;-81
2022/06/07 10:24:46;;;;;;;12.70;2.70;;;;;;;25.82;35.81;100750.60;106865;1283;72720;-80
2022/06/07 10:27:50;;;;;;;9.70;2.70;;;;;;;25.83;35.73;100750.88;106784;1282;74513;-80
2022/06/07 10:30:26;;;;;;;5.10;2.40;;;;;;;25.84;35.68;100745.75;106650;1283;61248;-80
2022/06/07 10:33:11;;;;;;;8.50;2.90;;;;;;;25.84;35.68;100743.39;106377;1283;62040;-79
2022/06/07 10:36:23;;;;;;;4.80;2.40;;;;;;;25.85;35.77;100744.59;106527;1283;73169;-79
2022/06/07 10:39:06;;;;;;;10.50;3.30;;;;;;;25.83;35.81;100739.90;105767;1288;75600;-80
2022/06/07 10:42:02;;;;;;;8.50;3.10;;;;;;;25.84;35.78;100736.39;106107;1289;61275;-81
2022/06/07 10:44:34;;;;;;;4.40;2.50;;;;;;;25.84;35.87;100735.85;106111;1289;61634;-81
2022/06/07 10:47:40;;;;;;;5.20;2.20;;;;;;;25.83;35.72;100731.73;106111;1289;71642;-82
2022/06/07 10:50:19;;;;;;;4.10;2.20;;;;;;;25.82;35.79;100729.57;106192;1288;76207;-79
2022/06/07 10:53:05;;;;;;;;;;;;;;;25.80;35.85;100732.41;106033;1289;61216;-80
2022/06/07 10:55:38;;;;;;;4.90;2.40;;;;;;;25.75;35.78;100735.56;106112;1289;61408;-79
2022/06/07 10:58:10;;;;;;;4.70;2.50;;;;;;;25.72;35.50;100738.21;105817;1289;72712;-80
2022/06/07 11:00:42;;;;;;;5.30;2.20;;;;;;;25.68;35.49;100735.53;106130;1289;75302;-81
2022/06/07 11:03:10;;;;;;;3.70;2.20;;;;;;;25.63;35.31;100733.77;105759;1289;61615;-81
2022/06/07 11:11:13;;;;;;;6.70;2.20;;;;;;;25.55;35.32;100732.31;106215;1289;66796;-80
2022/06/07 11:14:15;;;;;;;3.10;1.90;;;;;;;25.53;35.03;100728.72;105653;1289;61376;-80
2022/06/07 11:16:52;;;;;;;4.20;2.20;;;;;;;25.50;35.27;100730.26;106355;1283;61133;-81
2022/06/07 11:19:17;;;;;;;4.90;2.40;;;;;;;25.52;35.24;100723.26;106448;1283;74047;-81
2022/06/07 11:21:47;;;;;;;4.20;2.70;;;;;;;25.55;35.34;100722.09;106350;1283;61855;-80
2022/06/07 11:24:27;;;;;;;4.50;2.20;;;;;;;25.57;35.24;100720.63;106316;1283;61289;-81
2022/06/07 11:27:13;;;;;;;5.20;2.40;;;;;;;25.58;35.31;100715.88;106408;1283;61509;-81
2022/06/07 11:29:39;;;;;;;5.00;2.30;;;;;;;25.59;35.39;100716.67;106225;1289;72382;-81
2022/06/07 11:32:38;;;;;;;5.70;2.60;;;;;;;25.59;35.20;100716.27;106032;1289;61375;-82
2022/06/07 11:35:41;;;;;;;7.80;2.40;;;;;;;25.59;35.07;100714.51;106069;1289;61322;-80
2022/06/07 11:38:33;;;;;;;3.60;2.20;;;;;;;25.56;35.01;100714.90;106182;1288;60725;-80
2022/06/07 11:41:37;;;;;;;4.90;2.50;;;;;;;25.54;34.85;100710.11;106086;1289;72580;-81
2022/06/07 11:44:11;;;;;;;3.20;2.20;;;;;;;25.54;34.97;100701.30;106027;1289;75909;-79
2022/06/07 11:46:37;;;;;;;6.10;2.30;;;;;;;25.51;34.74;100702.06;106134;1289;61450;-82
2022/06/07 11:49:18;;;;;;;3.40;2.20;;;;;;;25.51;34.73;100700.50;105569;1289;59586;-80